Time;durP1;ratioP1;P1;durP2;ratioP2;P2;SDS_P1;SDS_P2;PMS_P1;PMS_P2;Temp;Humidity;BMP_temperature;BMP_pressure;BME280_temperature;BME280_humidity;BME280_pressure;Samples;Min_cycle;Max_cycle;Signal;HPM_P1;HPM_P2
2021/05/05 00:04:38;;;;;;;8.87;4.50;;;9.50;99.90;;;;;;20926155;28;20041;-76
2021/05/05 00:14:39;;;;;;;5.93;4.00;;;9.50;99.90;;;;;;20925238;28;20085;-77
2021/05/05 00:24:40;;;;;;;5.77;4.50;;;9.60;99.90;;;;;;20925208;28;20064;-77
2021/05/05 00:34:41;;;;;;;7.13;4.90;;;9.40;99.90;;;;;;20925814;28;20040;-77
2021/05/05 00:44:42;;;;;;;7.43;4.33;;;9.40;99.90;;;;;;20919614;28;20052;-77
2021/05/05 00:54:43;;;;;;;8.20;5.60;;;9.30;99.90;;;;;;20920961;28;20032;-77
2021/05/05 01:04:44;;;;;;;11.23;6.33;;;9.40;99.90;;;;;;20919911;28;20035;-77
2021/05/05 01:14:45;;;;;;;17.50;6.33;;;9.20;99.90;;;;;;20917947;28;20032;-77
2021/05/05 01:24:46;;;;;;;11.88;6.63;;;9.20;99.90;;;;;;20919329;28;20254;-77
2021/05/05 01:34:48;;;;;;;9.33;5.87;;;9.20;99.90;;;;;;20916906;28;20029;-76
2021/05/05 01:44:49;;;;;;;;;;;9.10;99.90;;;;;;20915272;28;20059;-77
2021/05/05 01:54:50;;;;;;;12.38;5.72;;;9.10;99.90;;;;;;20918030;28;20430;-76
2021/05/05 02:04:51;;;;;;;7.80;4.87;;;9.10;99.90;;;;;;20928225;28;20035;-78
2021/05/05 02:15:05;;;;;;;8.90;4.47;;;9.20;99.90;;;;;;20922187;28;20032;-78
2021/05/05 02:25:08;;;;;;;7.40;4.22;;;9.10;99.90;;;;;;20922259;28;20049;-78
2021/05/05 02:35:10;;;;;;;3.08;2.50;;;9.10;99.90;;;;;;20920359;28;20032;-79
2021/05/05 02:45:11;;;;;;;1.73;1.17;;;9.20;99.90;;;;;;20919557;28;20036;-78
2021/05/05 02:55:13;;;;;;;2.88;0.80;;;9.00;99.90;;;;;;20915487;28;20506;-78
2021/05/05 03:05:17;;;;;;;3.33;0.75;;;8.90;99.90;;;;;;20915762;28;20381;-78
2021/05/05 03:15:18;;;;;;;0.73;0.60;;;8.60;99.90;;;;;;20917352;28;20756;-77
2021/05/05 03:25:19;;;;;;;1.00;0.40;;;8.20;99.90;;;;;;20910533;28;20059;-78
2021/05/05 03:35:20;;;;;;;1.13;0.97;;;8.00;99.90;;;;;;20925996;28;20077;-78
2021/05/05 03:45:22;;;;;;;1.80;0.67;;;7.80;99.90;;;;;;20985136;28;20048;-79
2021/05/05 03:55:23;;;;;;;0.95;0.47;;;7.60;99.90;;;;;;21007559;28;20510;-78
2021/05/05 04:05:24;;;;;;;0.77;0.70;;;7.30;99.90;;;;;;21007345;28;20032;-77
2021/05/05 04:15:25;;;;;;;0.97;0.40;;;7.10;99.90;;;;;;21004487;28;20028;-75
2021/05/05 04:25:26;;;;;;;4.40;0.57;;;6.90;99.90;;;;;;20931465;28;20059;-76
2021/05/05 04:35:27;;;;;;;1.67;0.40;;;6.80;99.90;;;;;;20919970;28;20021;-75
2021/05/05 04:45:28;;;;;;;0.80;0.70;;;6.70;99.90;;;;;;20917627;28;20060;-75
2021/05/05 04:55:29;;;;;;;0.70;0.70;;;6.60;99.90;;;;;;20918132;28;20029;-76
2021/05/05 05:05:30;;;;;;;1.03;0.80;;;6.60;99.90;;;;;;20915738;28;20037;-75
2021/05/05 05:15:31;;;;;;;7.07;1.10;;;6.60;99.90;;;;;;20949000;28;20028;-76
2021/05/05 05:25:32;;;;;;;2.30;1.30;;;6.50;99.90;;;;;;20975273;28;20100;-75
2021/05/05 05:35:33;;;;;;;4.13;1.83;;;6.60;99.90;;;;;;20915871;28;20021;-75
2021/05/05 05:45:34;;;;;;;4.43;2.13;;;6.60;99.90;;;;;;20897361;28;20047;-76
2021/05/05 05:55:35;;;;;;;2.67;1.70;;;6.60;99.90;;;;;;20915797;28;20491;-78
2021/05/05 06:05:37;;;;;;;5.20;1.63;;;7.00;99.90;;;;;;20915561;28;20515;-78
2021/05/05 06:15:37;;;;;;;3.25;2.30;;;7.10;99.90;;;;;;20915141;28;20453;-78
2021/05/05 06:25:38;;;;;;;5.97;2.67;;;6.90;99.90;;;;;;20912136;28;20053;-78
2021/05/05 06:35:39;;;;;;;3.43;2.50;;;6.90;99.90;;;;;;20913454;28;20530;-76
2021/05/05 06:45:40;;;;;;;1.57;1.40;;;7.10;99.90;;;;;;20920266;28;20025;-77
2021/05/05 06:55:41;;;;;;;6.00;1.97;;;7.40;99.90;;;;;;20910192;28;20033;-77
2021/05/05 07:05:42;;;;;;;3.57;2.10;;;7.40;99.90;;;;;;20907422;28;20037;-77
2021/05/05 07:15:43;;;;;;;3.53;2.03;;;7.70;99.90;;;;;;20909171;28;20738;-78
2021/05/05 07:25:43;;;;;;;2.13;1.50;;;8.00;99.90;;;;;;20908580;28;20037;-78
2021/05/05 07:35:50;;;;;;;4.80;2.10;;;8.80;99.90;;;;;;20911625;28;20029;-78
2021/05/05 07:56:21;;;;;;;12.63;3.22;;;9.90;99.90;;;;;;20900811;28;20099;-78
2021/05/05 08:06:24;;;;;;;13.23;2.27;;;9.70;99.90;;;;;;20905437;28;20040;-78
2021/05/05 08:16:25;;;;;;;15.40;2.33;;;9.00;99.90;;;;;;20916988;28;20033;-76
2021/05/05 08:26:29;;;;;;;8.73;2.17;;;8.10;99.90;;;;;;20921394;28;20373;-77
2021/05/05 08:36:30;;;;;;;10.55;2.88;;;8.50;99.90;;;;;;20921515;28;20049;-77
2021/05/05 08:46:31;;;;;;;7.55;2.22;;;8.60;99.90;;;;;;20927785;28;20505;-76
2021/05/05 08:56:35;;;;;;;11.00;1.90;;;8.80;99.90;;;;;;20917866;28;20086;-77
2021/05/05 09:06:43;;;;;;;12.88;1.50;;;9.30;99.90;;;;;;20917091;28;20049;-77
2021/05/05 09:16:44;;;;;;;11.07;1.60;;;10.60;99.90;;;;;;20931604;22;20102;-73
2021/05/05 09:26:46;;;;;;;8.03;1.77;;;11.40;99.90;;;;;;20913670;28;20029;-73
2021/05/05 09:37:00;;;;;;;7.70;1.70;;;10.60;99.90;;;;;;20912690;28;20031;-73
2021/05/05 09:47:01;;;;;;;4.65;1.30;;;9.10;99.90;;;;;;20913470;28;20029;-73
2021/05/05 09:57:21;;;;;;;3.70;1.27;;;9.80;99.90;;;;;;20912803;28;20540;-74
2021/05/05 10:07:22;;;;;;;6.90;1.27;;;11.40;99.90;;;;;;20910954;28;20029;-74
2021/05/05 10:17:23;;;;;;;6.10;1.00;;;12.10;99.90;;;;;;20911349;28;20122;-74
2021/05/05 10:27:25;;;;;;;1.93;0.93;;;11.70;99.90;;;;;;20910666;28;20557;-74
2021/05/05 10:37:45;;;;;;;1.63;0.73;;;12.40;99.90;;;;;;20908374;28;20053;-74
2021/05/05 10:48:05;;;;;;;2.30;0.80;;;12.80;99.90;;;;;;20909408;28;20313;-73
2021/05/05 10:58:09;;;;;;;3.78;1.00;;;12.50;99.90;;;;;;20908449;28;20048;-73
2021/05/05 11:08:31;;;;;;;1.75;0.90;;;13.00;99.90;;;;;;20908245;28;20040;-74
2021/05/05 11:18:42;;;;;;;4.95;0.88;;;11.90;99.90;;;;;;20905671;28;20076;-74
2021/05/05 11:29:00;;;;;;;4.67;1.10;;;11.70;99.90;;;;;;20907212;28;20039;-74
2021/05/05 11:39:02;;;;;;;6.82;1.33;;;12.30;99.90;;;;;;20906893;28;20025;-75
2021/05/05 11:49:03;;;;;;;3.33;0.90;;;12.40;99.90;;;;;;20911587;28;20112;-74
2021/05/05 11:59:04;;;;;;;3.03;0.80;;;12.60;99.90;;;;;;20918618;28;20040;-74
2021/05/05 12:09:23;;;;;;;4.75;1.13;;;12.80;99.90;;;;;;20918914;28;20075;-74
2021/05/05 12:19:25;;;;;;;1.70;0.85;;;13.20;99.90;;;;;;20920866;28;20028;-74
2021/05/05 12:29:25;;;;;;;3.78;0.80;;;13.40;99.90;;;;;;20920082;28;20146;-74
2021/05/05 12:39:26;;;;;;;6.28;0.80;;;13.40;99.90;;;;;;20919410;28;20029;-74
2021/05/05 12:49:42;;;;;;;1.98;0.63;;;14.00;98.40;;;;;;20917223;28;20041;-74
2021/05/05 12:59:44;;;;;;;1.65;0.47;;;13.80;96.10;;;;;;20916338;28;20599;-74
2021/05/05 13:10:09;;;;;;;5.70;0.97;;;14.40;95.60;;;;;;20916988;28;20163;-73
2021/05/05 13:40:17;;;;;;;3.13;0.93;;;14.40;97.80;;;;;;20913458;28;20021;-74
2021/05/05 13:50:18;;;;;;;2.72;1.08;;;13.30;99.90;;;;;;20898399;28;20036;-74
2021/05/05 14:00:19;;;;;;;1.17;0.82;;;12.50;99.90;;;;;;20892606;28;20033;-73
2021/05/05 14:10:20;;;;;;;2.63;0.80;;;12.60;99.90;;;;;;20868410;28;20040;-73
2021/05/05 14:20:21;;;;;;;3.85;0.90;;;13.40;99.90;;;;;;20847185;28;20670;-73
2021/05/05 14:30:22;;;;;;;5.63;0.90;;;13.50;99.90;;;;;;20891124;28;20025;-73
2021/05/05 14:40:24;;;;;;;3.10;0.80;;;13.30;99.90;;;;;;20888479;28;20037;-73
2021/05/05 14:50:25;;;;;;;8.43;1.17;;;12.10;99.90;;;;;;20887807;28;20139;-73
2021/05/05 15:00:26;;;;;;;8.87;1.80;;;11.40;99.90;;;;;;20888627;28;20048;-73
2021/05/05 15:41:32;;;;;;;5.63;1.08;;;11.40;99.90;;;;;;20814256;28;20025;-81
2021/05/05 15:51:33;;;;;;;2.13;0.85;;;12.00;99.90;;;;;;20822923;28;20208;-81
2021/05/05 16:02:06;;;;;;;2.55;0.70;;;12.00;99.90;;;;;;20821234;28;19997;-78
2021/05/05 17:13:22;;;;;;;3.88;0.70;;;10.20;99.90;;;;;;20787828;28;20121;-80
2021/05/05 18:14:47;;;;;;;2.40;0.88;;;9.50;99.90;;;;;;20805011;28;20605;-78
2021/05/05 18:25:33;;;;;;;4.15;1.20;;;9.50;99.90;;;;;;20807524;28;20043;-79
2021/05/05 18:35:16;;;;;;;1.92;1.17;;;9.30;99.90;;;;;;20803288;28;20037;-79
2021/05/05 19:47:49;;;;;;;7.07;1.10;;;8.70;99.90;;;;;;20793155;28;20066;-78
2021/05/05 21:10:55;;;;;;;3.00;1.30;;;8.40;99.90;;;;;;20872569;28;20033;-79
